San Rafael, CA

6:44 PM PDT on September 17, 2014 (GMT -0700)
Petaluma | Change Station
CLOSE
Current Station
Airport
Location: Petaluma,
Elevation: 89 ft
Nearby Weather Stations

Elev 89 ft 38.26 °N, 122.61 °W | Updated 29 minutes ago

Mostly Cloudy
Mostly Cloudy
73 °F
Feels Like 73 °F
N
7
Wind Variable Wind from WNW

Today
High -- | Low -- °F
--% Chance of Precip.
Yesterday
High -- | Low -- °F
Precip. -- in
6:53 AM 7:14 PM
Waning Crescent, 31% visible
Pressure 29.76 in
Visibility 10.0 miles
Clouds Overcast 4500 ft
Dew Point 55 °F
Humidity 53%
Rainfall 0.00 in
Snow Depth 0 in , 2 in , 0 in
UV 0 out of 12
Pollen 5.10 out of 12
PM2.5 Good
Flu Activity Not available.
METAR KO69 180115Z AUTO 30006KT 10SM OVC045 23/13 A2976 RMK AO1

More Conditions Fewer Conditions

Pressure 29.76 in
Visibility 10.0 miles
Clouds Overcast 4500 ft
Dew Point 55 °F
Humidity 53%
Rainfall 0.00 in
Snow Depth 0 in , 2 in , 0 in
UV 0 out of 12
Pollen 5.10 out of 12
PM2.5 Good
Flu Activity Not available.
METAR KO69 180115Z AUTO 30006KT 10SM OVC045 23/13 A2976 RMK AO1

More Conditions Fewer Conditions

10-Day Weather Forecast

Almanac

Astronomy

Sep. 17, 2014 Rise Set
Actual Time 6:53 AM PDT 7:14 PM PDT
Civil Twilight 6:27 AM PDT 7:40 PM PDT
Nautical Twilight 5:56 AM PDT 8:11 PM PDT
Astronomical Twilight 5:24 AM PDT 8:43 PM PDT
Moon 1:02 AM PDT (9/17) 3:24 PM PDT (9/17)
Length of Visible Light 13h 13m
Length of Day
12h 21m
Tomorrow will be 2m 25s shorter.
Waning Crescent, 31% of the Moon is Illuminated
Today
Waning Crescent
Sep 24
New
Oct 1
First Quarter
Oct 8
Full
Oct 15
Last Quarter

Today's Extremes

State Highs State Lows

Community

WunderPhotos

Upload Photos

1,754,261 photos uploaded!

Nearby

Air Quality

  Air Quality AQ Index Pollutant
Yesterday Good
PM2.5
Yesterday Good
OZONE
Current Good
PM2.5
Wednesday Good
PM2.5
Thursday Good
OZONE
Friday Good
PM2.5
Saturday Moderate
PM2.5
Sunday Moderate
PM2.5
Monday Moderate
PM2.5

Snow Depth

Station Depth Elevation
Spratt Creek 0 in 6200 ft
CSS Lab 2 in 6900 ft
Tahoe City Cross 0 in 6750 ft
Adin Mountain 2 in 6200 ft
Leavitt Meadows 0 in 7200 ft

Earthquake Activity

City Distance Mag. Time & Date
Cobb, California 57 miles 2.7 1:23 PM PDT
2014-09-16
Minimum magnitude displayed is 2.5.

Coastal Water Temperatures

Place Temperature
San Francisco, CA 66.0 °F
Richmond, CA 68.0 °F
Port Chicago, CA 71.1 °F

Nearby Weather Stations